createdAt,value
2018-11-23T00:00:10.337Z,1.60
2018-11-23T00:02:38.497Z,1.60
2018-11-23T00:05:06.809Z,1.60
2018-11-23T00:07:34.982Z,1.60
2018-11-23T00:10:03.217Z,1.60
2018-11-23T00:12:31.404Z,1.50
2018-11-23T00:14:59.572Z,1.50
2018-11-23T00:17:27.798Z,1.50
2018-11-23T00:19:56.033Z,1.50
2018-11-23T00:22:24.227Z,1.50
2018-11-23T00:24:52.390Z,1.60
2018-11-23T00:27:20.990Z,1.50
2018-11-23T00:29:49.156Z,1.60
2018-11-23T00:32:17.317Z,1.60
2018-11-23T00:34:45.521Z,1.60
2018-11-23T00:37:13.683Z,1.50
2018-11-23T00:39:41.844Z,1.50
2018-11-23T00:42:10.057Z,1.40
2018-11-23T00:44:38.206Z,1.40
2018-11-23T00:47:06.390Z,1.30
2018-11-23T00:49:34.602Z,1.30
2018-11-23T00:52:02.758Z,1.30
2018-11-23T00:54:30.901Z,1.30
2018-11-23T00:56:59.054Z,1.20
2018-11-23T00:59:27.239Z,1.20
2018-11-23T01:02:00.737Z,1.20
2018-11-23T01:06:56.898Z,1.00
2018-11-23T01:09:25.073Z,1.00
2018-11-23T01:11:53.266Z,1.00
2018-11-23T01:14:21.475Z,1.00
2018-11-23T01:16:49.816Z,1.10
2018-11-23T01:19:17.994Z,1.20
2018-11-23T01:21:46.395Z,1.20
2018-11-23T01:24:14.724Z,1.30
2018-11-23T01:26:43.122Z,1.40
2018-11-23T01:29:11.308Z,1.40
2018-11-23T01:31:39.460Z,1.40
2018-11-23T01:34:07.621Z,1.40
2018-11-23T01:36:35.835Z,1.40
2018-11-23T01:39:05.817Z,1.40
2018-11-23T01:41:34.062Z,1.40
2018-11-23T01:44:02.247Z,1.30
2018-11-23T01:46:30.444Z,1.30
2018-11-23T01:48:58.637Z,1.40
2018-11-23T01:51:26.854Z,1.40
2018-11-23T01:54:01.533Z,1.40
2018-11-23T01:56:29.843Z,1.30
2018-11-23T01:58:58.247Z,1.30
2018-11-23T02:01:26.450Z,1.30
2018-11-23T02:03:54.606Z,1.30
2018-11-23T02:06:22.811Z,1.30
2018-11-23T02:08:51.058Z,1.40
2018-11-23T02:11:19.259Z,1.40
2018-11-23T02:13:47.464Z,1.30
2018-11-23T02:16:15.646Z,1.30
2018-11-23T02:18:43.803Z,1.30
2018-11-23T02:21:11.987Z,1.30
2018-11-23T02:23:40.126Z,1.30
2018-11-23T02:26:08.311Z,1.40
2018-11-23T02:28:36.469Z,1.40
2018-11-23T02:31:08.077Z,1.30
2018-11-23T02:33:37.582Z,1.30
2018-11-23T02:36:06.286Z,1.30
2018-11-23T02:38:34.446Z,1.30
2018-11-23T02:41:02.634Z,1.40
2018-11-23T02:43:30.878Z,1.40
2018-11-23T02:45:59.081Z,1.40
2018-11-23T02:48:27.277Z,1.30
2018-11-23T02:50:55.536Z,1.30
2018-11-23T02:53:23.701Z,1.20
2018-11-23T02:55:51.874Z,1.10
2018-11-23T02:58:20.055Z,1.10
2018-11-23T03:00:48.189Z,1.10
2018-11-23T03:03:16.387Z,1.10
2018-11-23T03:05:44.548Z,1.10
2018-11-23T03:08:12.807Z,1.10
2018-11-23T03:10:40.976Z,1.10
2018-11-23T03:13:09.151Z,1.10
2018-11-23T03:15:37.342Z,1.10
2018-11-23T03:18:05.717Z,1.10
2018-11-23T03:20:33.915Z,1.10
2018-11-23T03:23:02.093Z,1.10
2018-11-23T03:25:30.275Z,1.10
2018-11-23T03:27:58.478Z,1.10
2018-11-23T03:30:26.663Z,1.10
2018-11-23T03:32:54.829Z,1.10
2018-11-23T03:35:23.390Z,1.20
2018-11-23T03:37:51.537Z,1.10
2018-11-23T03:40:19.905Z,1.10
2018-11-23T03:42:48.118Z,1.20
2018-11-23T03:45:16.744Z,1.20
2018-11-23T03:47:45.286Z,1.20
2018-11-23T03:50:14.360Z,1.20
2018-11-23T03:52:43.068Z,1.20
2018-11-23T03:55:11.193Z,1.20
2018-11-23T03:57:39.469Z,1.30
2018-11-23T04:00:21.707Z,1.20
2018-11-23T04:02:50.390Z,1.20
2018-11-23T04:05:18.861Z,1.30
2018-11-23T04:07:47.329Z,1.30
2018-11-23T04:10:16.137Z,1.30
2018-11-23T04:12:44.829Z,1.30
2018-11-23T04:15:13.434Z,1.30
2018-11-23T04:17:41.956Z,1.30
2018-11-23T04:20:12.079Z,1.30
2018-11-23T04:22:40.662Z,1.30
2018-11-23T04:25:09.142Z,1.30
2018-11-23T04:27:37.314Z,1.30
2018-11-23T04:30:08.066Z,1.30
2018-11-23T04:32:36.343Z,1.30
2018-11-23T04:35:05.648Z,1.20
2018-11-23T04:37:33.904Z,1.10
2018-11-23T04:40:02.094Z,1.10
2018-11-23T04:42:30.253Z,1.10
2018-11-23T04:44:58.499Z,1.10
2018-11-23T04:47:26.677Z,1.10
2018-11-23T04:49:55.105Z,1.10
2018-11-23T04:52:23.265Z,1.00
2018-11-23T04:54:51.451Z,1.00
2018-11-23T04:57:19.602Z,1.00
2018-11-23T04:59:47.773Z,1.00
2018-11-23T05:02:15.939Z,1.00
2018-11-23T05:04:44.230Z,1.00
2018-11-23T05:07:12.405Z,0.90
2018-11-23T05:09:40.590Z,0.90
2018-11-23T05:12:08.886Z,0.90
2018-11-23T05:14:37.033Z,0.90
2018-11-23T05:17:05.369Z,0.90
2018-11-23T05:19:33.509Z,0.90
2018-11-23T05:22:01.669Z,0.90
2018-11-23T05:24:29.842Z,0.90
2018-11-23T05:26:58.018Z,0.90
2018-11-23T05:29:26.380Z,0.80
2018-11-23T05:31:54.583Z,0.80
2018-11-23T05:34:22.745Z,0.80
2018-11-23T05:36:50.915Z,0.80
2018-11-23T05:39:19.071Z,0.80
2018-11-23T05:41:47.431Z,0.90
2018-11-23T05:44:15.406Z,0.90
2018-11-23T05:46:43.812Z,0.90
2018-11-23T05:49:12.334Z,0.80
2018-11-23T05:51:40.544Z,0.80
2018-11-23T05:54:08.689Z,0.70
2018-11-23T05:56:36.851Z,0.70
2018-11-23T05:59:05.607Z,0.70
2018-11-23T06:01:33.777Z,0.70
2018-11-23T06:04:01.977Z,0.70
2018-11-23T06:06:30.167Z,0.70
2018-11-23T06:08:58.369Z,0.70
2018-11-23T06:11:26.576Z,0.60
2018-11-23T06:13:54.820Z,0.60
2018-11-23T06:16:23.031Z,0.60
2018-11-23T06:18:51.169Z,0.60
2018-11-23T06:21:19.393Z,0.80
2018-11-23T06:23:47.547Z,0.80
2018-11-23T06:26:19.746Z,0.90
2018-11-23T06:28:48.044Z,0.90
2018-11-23T06:31:16.149Z,1.00
2018-11-23T06:33:45.433Z,1.00
2018-11-23T06:36:13.599Z,1.00
2018-11-23T06:38:41.770Z,1.00
2018-11-23T06:41:10.635Z,1.00
2018-11-23T06:43:38.226Z,0.90
2018-11-23T06:46:08.011Z,0.90
2018-11-23T06:48:36.215Z,0.90
2018-11-23T06:51:04.679Z,0.80
2018-11-23T06:53:32.867Z,0.80
2018-11-23T06:56:01.357Z,0.80
2018-11-23T06:58:29.505Z,0.80
2018-11-23T07:00:57.801Z,0.80
2018-11-23T07:03:26.149Z,0.80
2018-11-23T07:05:54.553Z,0.80
2018-11-23T07:08:23.314Z,0.90
2018-11-23T07:10:51.599Z,0.90
2018-11-23T07:13:19.731Z,1.00
2018-11-23T07:15:47.900Z,1.00
2018-11-23T07:18:16.073Z,1.00
2018-11-23T07:20:44.235Z,1.10
2018-11-23T07:23:12.405Z,1.20
2018-11-23T07:25:40.597Z,1.20
2018-11-23T07:28:15.096Z,1.20
2018-11-23T07:30:37.074Z,1.30
2018-11-23T07:33:05.817Z,1.40
2018-11-23T07:35:34.085Z,1.30
2018-11-23T07:38:02.320Z,1.40
2018-11-23T07:40:43.514Z,1.40
2018-11-23T07:43:11.689Z,1.40
2018-11-23T07:45:39.878Z,1.50
2018-11-23T07:48:08.673Z,1.50
2018-11-23T07:50:36.868Z,1.50
2018-11-23T07:53:05.233Z,1.60
2018-11-23T07:55:33.414Z,1.70
2018-11-23T07:58:01.588Z,1.70
2018-11-23T08:00:29.770Z,1.80
2018-11-23T08:02:57.926Z,1.80
2018-11-23T08:05:26.109Z,1.90
2018-11-23T08:07:54.261Z,2.00
2018-11-23T08:10:21.698Z,2.00
2018-11-23T08:12:50.657Z,2.10
2018-11-23T08:15:21.291Z,2.10
2018-11-23T08:17:49.442Z,2.10
2018-11-23T08:20:18.897Z,2.10
2018-11-23T08:22:47.245Z,2.10
2018-11-23T08:25:16.483Z,2.10
2018-11-23T08:27:45.713Z,2.10
2018-11-23T08:30:16.254Z,2.10
2018-11-23T08:32:44.608Z,2.10
2018-11-23T08:35:13.033Z,2.20
2018-11-23T08:37:41.278Z,2.10
2018-11-23T08:40:13.415Z,2.10
2018-11-23T08:42:42.181Z,2.10
2018-11-23T08:45:12.451Z,2.10
2018-11-23T08:47:40.837Z,2.10
2018-11-23T08:50:12.333Z,2.10
2018-11-23T08:52:40.506Z,2.10
2018-11-23T08:55:09.784Z,2.10
2018-11-23T08:57:37.944Z,2.10
2018-11-23T09:00:09.867Z,2.20
2018-11-23T09:02:38.023Z,2.20
2018-11-23T09:05:06.588Z,2.20
2018-11-23T09:07:34.779Z,2.20
2018-11-23T09:10:03.018Z,2.20
2018-11-23T09:12:31.633Z,2.30
2018-11-23T09:14:59.812Z,2.30
2018-11-23T09:17:28.001Z,2.30
2018-11-23T09:19:56.202Z,2.30
2018-11-23T09:22:24.369Z,2.30
2018-11-23T09:24:52.873Z,2.40
2018-11-23T09:27:21.259Z,2.40
2018-11-23T09:29:49.426Z,2.40
2018-11-23T09:32:17.911Z,2.50
2018-11-23T09:34:46.237Z,2.60
2018-11-23T09:37:14.391Z,2.60
2018-11-23T09:39:43.710Z,2.60
2018-11-23T09:42:11.894Z,2.60
2018-11-23T09:44:40.066Z,2.70
2018-11-23T09:47:10.155Z,2.70
2018-11-23T09:49:36.430Z,2.70
2018-11-23T09:52:04.633Z,2.80
2018-11-23T09:54:32.796Z,2.80
2018-11-23T09:57:00.930Z,2.90
2018-11-23T09:59:29.109Z,2.90
2018-11-23T10:01:57.397Z,3.00
2018-11-23T10:04:25.477Z,3.00
2018-11-23T10:07:00.081Z,3.00
2018-11-23T10:09:28.262Z,3.10
2018-11-23T10:11:56.425Z,3.20
2018-11-23T10:14:24.578Z,3.20
2018-11-23T10:16:53.351Z,3.20
2018-11-23T10:19:29.781Z,3.30
2018-11-23T10:21:57.916Z,3.30
2018-11-23T10:24:26.315Z,3.30
2018-11-23T10:26:54.578Z,3.40
2018-11-23T10:29:23.138Z,3.40
2018-11-23T10:31:51.296Z,3.40
2018-11-23T10:34:19.670Z,3.40
2018-11-23T10:36:47.967Z,3.50
2018-11-23T10:39:16.592Z,3.50
2018-11-23T10:41:44.989Z,3.50
2018-11-23T10:44:13.145Z,3.60
2018-11-23T10:46:41.346Z,3.70
2018-11-23T10:49:09.718Z,3.70
2018-11-23T10:51:37.893Z,3.70
2018-11-23T10:54:06.189Z,3.80
2018-11-23T10:56:34.585Z,3.90
2018-11-23T10:59:02.758Z,3.90
2018-11-23T11:01:36.329Z,4.00
2018-11-23T11:04:09.897Z,4.00
2018-11-23T11:07:00.833Z,4.00
2018-11-23T11:09:29.011Z,4.00
2018-11-23T11:11:57.220Z,4.10
2018-11-23T11:14:25.385Z,4.10
2018-11-23T11:16:53.837Z,4.10
2018-11-23T11:19:22.163Z,4.10
2018-11-23T11:21:50.375Z,4.20
2018-11-23T11:24:18.653Z,4.20
2018-11-23T11:26:47.349Z,4.30
2018-11-23T11:29:15.575Z,4.30
2018-11-23T11:31:44.091Z,4.40
2018-11-23T11:34:12.470Z,4.40
2018-11-23T11:36:40.669Z,4.40
2018-11-23T11:39:10.354Z,4.50
2018-11-23T11:41:38.787Z,4.50
2018-11-23T11:44:07.156Z,4.50
2018-11-23T11:46:35.441Z,4.60
2018-11-23T11:49:03.603Z,4.60
2018-11-23T11:51:31.802Z,4.60
2018-11-23T11:54:00.036Z,4.70
2018-11-23T11:56:28.186Z,4.70
2018-11-23T11:58:58.155Z,4.80
2018-11-23T12:01:26.901Z,4.80
2018-11-23T12:03:55.874Z,4.80
2018-11-23T12:06:24.042Z,4.80
2018-11-23T12:08:52.429Z,4.90
2018-11-23T12:11:20.625Z,4.90
2018-11-23T12:13:48.852Z,5.00
2018-11-23T12:16:17.129Z,5.00
2018-11-23T12:18:45.322Z,5.10
2018-11-23T12:21:13.618Z,5.10
2018-11-23T12:23:41.979Z,5.10
2018-11-23T12:26:10.437Z,5.10
2018-11-23T12:28:38.824Z,5.10
2018-11-23T12:31:06.970Z,5.20
2018-11-23T12:33:35.156Z,5.20
2018-11-23T12:36:03.391Z,5.30
2018-11-23T12:38:31.623Z,5.30
2018-11-23T12:40:59.806Z,5.40
2018-11-23T12:43:27.973Z,5.40
2018-11-23T12:45:56.129Z,5.40
2018-11-23T12:48:24.489Z,5.40
2018-11-23T12:50:52.783Z,5.50
2018-11-23T12:53:20.986Z,5.50
2018-11-23T12:55:49.189Z,5.50
2018-11-23T12:58:17.416Z,5.50
2018-11-23T13:00:45.758Z,5.60
2018-11-23T13:03:14.018Z,5.60
2018-11-23T13:05:42.421Z,5.70
2018-11-23T13:08:10.598Z,5.70
2018-11-23T13:10:38.778Z,5.70
2018-11-23T13:13:07.125Z,5.80
2018-11-23T13:15:35.289Z,5.80
2018-11-23T13:18:03.450Z,5.80
2018-11-23T13:20:31.638Z,5.80
2018-11-23T13:22:59.799Z,5.80
2018-11-23T13:25:29.698Z,5.80
2018-11-23T13:27:58.070Z,5.80
2018-11-23T13:30:27.844Z,5.80
2018-11-23T13:32:56.135Z,5.90
2018-11-23T13:35:24.301Z,5.90
2018-11-23T13:37:52.474Z,5.90
2018-11-23T13:40:22.003Z,5.90
2018-11-23T13:42:50.775Z,5.90
2018-11-23T13:45:20.626Z,6.00
2018-11-23T13:47:48.804Z,6.00
2018-11-23T13:50:18.405Z,6.00
2018-11-23T13:52:47.436Z,6.00
2018-11-23T13:55:15.601Z,6.00
2018-11-23T13:57:43.816Z,6.00
2018-11-23T14:00:15.150Z,6.10
2018-11-23T14:02:43.754Z,6.10
2018-11-23T14:05:13.678Z,6.10
2018-11-23T14:07:42.494Z,6.10
2018-11-23T14:10:12.710Z,6.20
2018-11-23T14:12:41.245Z,6.20
2018-11-23T14:15:12.530Z,6.20
2018-11-23T14:17:41.174Z,6.10
2018-11-23T14:20:10.899Z,6.10
2018-11-23T14:22:39.061Z,6.10
2018-11-23T14:25:08.705Z,6.10
2018-11-23T14:27:36.868Z,6.10
2018-11-23T14:30:08.433Z,6.00
2018-11-23T14:32:36.613Z,6.00
2018-11-23T14:35:04.865Z,6.00
2018-11-23T14:37:33.045Z,6.00
2018-11-23T14:40:01.418Z,5.90
2018-11-23T14:42:29.685Z,5.90
2018-11-23T14:44:57.895Z,5.90
2018-11-23T14:47:26.057Z,5.80
2018-11-23T14:49:54.206Z,5.70
2018-11-23T14:52:22.427Z,5.80
2018-11-23T14:54:50.593Z,5.70
2018-11-23T14:57:18.789Z,5.60
2018-11-23T14:59:46.964Z,5.50
2018-11-23T15:02:15.245Z,5.40
2018-11-23T15:04:43.434Z,5.30
2018-11-23T15:07:11.634Z,5.10
2018-11-23T15:09:39.815Z,5.10
2018-11-23T15:12:08.106Z,5.10
2018-11-23T15:14:36.260Z,5.00
2018-11-23T15:17:04.449Z,4.90
2018-11-23T15:19:32.623Z,4.90
2018-11-23T15:22:00.797Z,4.80
2018-11-23T15:24:29.132Z,4.60
2018-11-23T15:26:57.371Z,4.50
2018-11-23T15:29:25.567Z,4.40
2018-11-23T15:31:53.725Z,4.40
2018-11-23T15:34:22.014Z,4.40
2018-11-23T15:36:50.268Z,4.30
2018-11-23T15:39:18.415Z,4.20
2018-11-23T15:41:46.584Z,4.20
2018-11-23T15:44:14.729Z,4.20
2018-11-23T15:49:17.463Z,4.00
2018-11-23T15:51:45.650Z,4.00
2018-11-23T15:54:13.788Z,4.00
2018-11-23T15:56:41.966Z,3.90
2018-11-23T15:59:10.130Z,3.90
2018-11-23T16:01:38.362Z,3.70
2018-11-23T16:04:06.545Z,3.60
2018-11-23T16:06:34.728Z,3.60
2018-11-23T16:09:02.910Z,3.50
2018-11-23T16:11:31.152Z,3.50
2018-11-23T16:13:59.340Z,3.50
2018-11-23T16:16:27.502Z,3.50
2018-11-23T16:18:55.757Z,3.60
2018-11-23T16:21:23.931Z,3.60
2018-11-23T16:23:52.195Z,3.60
2018-11-23T16:26:20.377Z,3.60
2018-11-23T16:28:48.590Z,3.60
2018-11-23T16:31:16.953Z,3.60
2018-11-23T16:33:45.186Z,3.50
2018-11-23T16:36:13.363Z,3.50
2018-11-23T16:38:41.553Z,3.50
2018-11-23T16:41:09.711Z,3.50
2018-11-23T16:43:37.878Z,3.50
2018-11-23T16:46:06.056Z,3.50
2018-11-23T16:48:34.244Z,3.50
2018-11-23T16:51:02.466Z,3.60
2018-11-23T16:53:30.641Z,3.60
2018-11-23T16:55:58.833Z,3.60
2018-11-23T16:58:26.990Z,3.60
2018-11-23T17:00:55.219Z,3.70
2018-11-23T17:03:24.020Z,3.70
2018-11-23T17:05:54.490Z,3.70
2018-11-23T17:08:22.669Z,3.70
2018-11-23T17:10:50.845Z,3.70
2018-11-23T17:13:19.001Z,3.70
2018-11-23T17:15:47.209Z,3.70
2018-11-23T17:18:15.377Z,3.70
2018-11-23T17:20:43.573Z,3.70
2018-11-23T17:23:12.416Z,3.70
2018-11-23T17:25:40.582Z,3.70
2018-11-23T17:28:09.936Z,3.70
2018-11-23T17:30:38.437Z,3.70
2018-11-23T17:33:06.814Z,3.70
2018-11-23T17:35:35.239Z,3.70
2018-11-23T17:38:03.490Z,3.80
2018-11-23T17:40:33.720Z,3.80
2018-11-23T17:43:01.870Z,3.80
2018-11-23T17:45:31.449Z,3.80
2018-11-23T17:47:59.838Z,3.80
2018-11-23T17:50:29.510Z,3.80
2018-11-23T17:52:57.974Z,3.80
2018-11-23T17:55:26.115Z,3.70
2018-11-23T17:57:55.161Z,3.70
2018-11-23T18:00:25.689Z,3.70
2018-11-23T18:03:01.198Z,3.70
2018-11-23T18:05:30.311Z,3.70
2018-11-23T18:07:58.964Z,3.70
2018-11-23T18:10:28.535Z,3.70
2018-11-23T18:12:57.280Z,3.60
2018-11-23T18:15:27.118Z,3.70
2018-11-23T18:17:56.446Z,3.60
2018-11-23T18:20:25.605Z,3.70
2018-11-23T18:22:54.677Z,3.70
2018-11-23T18:25:30.894Z,3.70
2018-11-23T18:28:00.339Z,3.70
2018-11-23T18:30:31.529Z,3.70
2018-11-23T18:33:00.665Z,3.70
2018-11-23T18:35:28.960Z,3.70
2018-11-23T18:37:57.199Z,3.70
2018-11-23T18:40:25.395Z,3.70
2018-11-23T18:42:53.780Z,3.70
2018-11-23T18:45:22.091Z,3.60
2018-11-23T18:47:50.383Z,3.70
2018-11-23T18:50:18.775Z,3.70
2018-11-23T18:52:46.965Z,3.70
2018-11-23T18:55:18.090Z,3.70
2018-11-23T18:57:43.455Z,3.70
2018-11-23T19:00:12.938Z,3.70
2018-11-23T19:02:41.708Z,3.70
2018-11-23T19:05:14.254Z,3.70
2018-11-23T19:07:42.454Z,3.70
2018-11-23T19:10:11.902Z,3.70
2018-11-23T19:12:40.129Z,3.70
2018-11-23T19:15:12.678Z,3.70
2018-11-23T19:17:41.236Z,3.70
2018-11-23T19:20:11.091Z,3.70
2018-11-23T19:22:39.237Z,3.70
2018-11-23T19:25:07.473Z,3.70
2018-11-23T19:27:35.649Z,3.70
2018-11-23T19:30:04.231Z,3.70
2018-11-23T19:32:32.478Z,3.70
2018-11-23T19:35:00.890Z,3.70
2018-11-23T19:37:29.116Z,3.70
2018-11-23T19:39:57.392Z,3.70
2018-11-23T19:42:25.555Z,3.70
2018-11-23T19:44:53.747Z,3.60
2018-11-23T19:47:22.888Z,3.60
2018-11-23T19:49:51.124Z,3.60
2018-11-23T19:52:19.266Z,3.60
2018-11-23T19:54:47.435Z,3.70
2018-11-23T19:57:15.591Z,3.60
2018-11-23T19:59:43.749Z,3.70
2018-11-23T20:02:11.945Z,3.70
2018-11-23T20:04:40.074Z,3.70
2018-11-23T20:07:08.255Z,3.70
2018-11-23T20:09:39.999Z,3.70
2018-11-23T20:12:04.755Z,3.70
2018-11-23T20:14:32.941Z,3.70
2018-11-23T20:17:01.152Z,3.70
2018-11-23T20:19:29.297Z,3.70
2018-11-23T20:21:57.521Z,3.70
2018-11-23T20:24:25.693Z,3.80
2018-11-23T20:26:53.895Z,3.70
2018-11-23T20:29:22.049Z,3.70
2018-11-23T20:31:50.216Z,3.70
2018-11-23T20:34:18.352Z,3.60
2018-11-23T20:36:46.540Z,3.60
2018-11-23T20:39:14.700Z,3.60
2018-11-23T20:41:42.888Z,3.50
2018-11-23T20:44:11.045Z,3.60
2018-11-23T20:46:39.546Z,3.60
2018-11-23T20:49:07.702Z,3.60
2018-11-23T20:51:35.907Z,3.60
2018-11-23T20:54:04.171Z,3.60
2018-11-23T20:56:32.331Z,3.50
2018-11-23T20:59:00.535Z,3.50
2018-11-23T21:01:28.696Z,3.50
2018-11-23T21:03:56.861Z,3.50
2018-11-23T21:06:25.042Z,3.50
2018-11-23T21:08:53.206Z,3.50
2018-11-23T21:11:21.373Z,3.50
2018-11-23T21:13:49.546Z,3.50
2018-11-23T21:16:17.705Z,3.50
2018-11-23T21:18:45.892Z,3.50
2018-11-23T21:21:14.054Z,3.50
2018-11-23T21:23:42.215Z,3.50
2018-11-23T21:26:10.513Z,3.50
2018-11-23T21:28:38.726Z,3.40
2018-11-23T21:31:06.885Z,3.40
2018-11-23T21:33:35.078Z,3.40
2018-11-23T21:36:03.227Z,3.40
2018-11-23T21:38:31.410Z,3.40
2018-11-23T21:40:59.713Z,3.40
2018-11-23T21:43:27.924Z,3.40
2018-11-23T21:45:56.088Z,3.40
2018-11-23T21:48:24.275Z,3.40
2018-11-23T21:50:52.474Z,3.40
2018-11-23T21:53:20.648Z,3.40
2018-11-23T21:55:48.822Z,3.30
2018-11-23T21:58:17.014Z,3.30
2018-11-23T22:00:45.229Z,3.30
2018-11-23T22:03:13.362Z,3.30
2018-11-23T22:05:41.523Z,3.30
2018-11-23T22:08:09.697Z,3.30
2018-11-23T22:10:37.854Z,3.30
2018-11-23T22:13:06.053Z,3.20
2018-11-23T22:15:34.257Z,3.20
2018-11-23T22:18:02.452Z,3.20
2018-11-23T22:20:30.630Z,3.20
2018-11-23T22:22:58.804Z,3.20
2018-11-23T22:25:26.979Z,3.30
2018-11-23T22:27:55.171Z,3.30
2018-11-23T22:30:30.367Z,3.20
2018-11-23T22:32:58.908Z,3.20
2018-11-23T22:35:28.335Z,3.20
2018-11-23T22:37:56.517Z,3.20
2018-11-23T22:40:24.694Z,3.20
2018-11-23T22:42:54.220Z,3.20
2018-11-23T22:45:22.397Z,3.20
2018-11-23T22:47:50.546Z,3.20
2018-11-23T22:50:19.808Z,3.20
2018-11-23T22:52:48.091Z,3.10
2018-11-23T22:55:17.136Z,3.10
2018-11-23T22:57:45.327Z,3.10
2018-11-23T23:00:22.039Z,3.10
2018-11-23T23:02:50.470Z,3.00
2018-11-23T23:05:19.803Z,3.00
2018-11-23T23:07:47.989Z,3.00
2018-11-23T23:10:16.172Z,3.00
2018-11-23T23:12:44.339Z,2.90
2018-11-23T23:15:12.568Z,2.90
2018-11-23T23:17:41.310Z,2.90
2018-11-23T23:20:14.435Z,2.90
2018-11-23T23:22:42.594Z,2.90
2018-11-23T23:25:11.609Z,2.80
2018-11-23T23:27:39.781Z,2.80
2018-11-23T23:30:12.914Z,2.80
2018-11-23T23:32:41.077Z,2.80
2018-11-23T23:35:10.226Z,2.70
2018-11-23T23:37:38.696Z,2.70
2018-11-23T23:40:08.456Z,2.70
2018-11-23T23:42:36.685Z,2.70
2018-11-23T23:45:07.582Z,2.70
2018-11-23T23:47:35.755Z,2.60
2018-11-23T23:50:04.369Z,2.60
2018-11-23T23:52:32.594Z,2.60
2018-11-23T23:55:00.873Z,2.60
2018-11-23T23:57:29.022Z,2.60
2018-11-23T23:59:57.181Z,2.60
